Terminal Aerodrome Forecast
Issued by NWS

Home | Current Version | Previous Version | Text Only | Print | Product List | Glossary Off
Versions: 1 2 3 4 5 6 7 8 9 10 11 12 13 14 15 16

000
FTUS43 KGRB 072320
TAFMTW
TAF
KMTW 072320Z 0800/0824 26014G23KT P6SM -SN BKN025
     FM081700 30014G26KT P6SM -SN BKN029=

USA.gov is the U.S. government's official web portal to all federal, state and local government web resources and services.